Terminal Aerodrome Forecast
Issued by NWS Duluth, MN

Home | Current Version | Previous Version | Text Only | Print | Product List | Glossary On
Versions: 1 2 3 4 5 6 7 8 9 10 11 12 13 14 15 16 17 18 19
000
FTUS43 KDLH 231100
TAFDLH
TAF
KDLH 231134Z 2312/2412 01005KT P6SM SCT050
     FM231600 08006KT P6SM SCT035
     FM240300 VRB03KT P6SM FEW035
      TEMPO 2409/2412 1SM BR SCT004=

USA.gov is the U.S. government's official web portal to all federal, state and local government web resources and services.